sensor_id;sensor_type;location;lat;lon;timestamp;P1;durP1;ratioP1;P2;durP2;ratioP2
45522;SDS011;31254;51.680;5.394;2024-01-30T00:01:57;13.73;;;10.18;;
45522;SDS011;31254;51.680;5.394;2024-01-30T00:04:24;14.88;;;10.20;;
45522;SDS011;31254;51.680;5.394;2024-01-30T00:06:50;13.30;;;9.73;;
45522;SDS011;31254;51.680;5.394;2024-01-30T00:09:19;15.23;;;10.38;;
45522;SDS011;31254;51.680;5.394;2024-01-30T00:11:46;12.85;;;9.48;;
45522;SDS011;31254;51.680;5.394;2024-01-30T00:14:12;14.70;;;9.45;;
45522;SDS011;31254;51.680;5.394;2024-01-30T00:16:40;12.95;;;9.27;;
45522;SDS011;31254;51.680;5.394;2024-01-30T00:19:06;16.73;;;9.57;;
45522;SDS011;31254;51.680;5.394;2024-01-30T00:21:34;12.68;;;9.80;;
45522;SDS011;31254;51.680;5.394;2024-01-30T00:24:01;12.80;;;9.23;;
45522;SDS011;31254;51.680;5.394;2024-01-30T00:26:28;13.45;;;9.95;;
45522;SDS011;31254;51.680;5.394;2024-01-30T00:28:54;11.73;;;8.80;;
45522;SDS011;31254;51.680;5.394;2024-01-30T00:31:21;13.48;;;9.35;;
45522;SDS011;31254;51.680;5.394;2024-01-30T00:33:47;13.38;;;9.48;;
45522;SDS011;31254;51.680;5.394;2024-01-30T00:36:14;13.60;;;9.43;;
45522;SDS011;31254;51.680;5.394;2024-01-30T00:38:40;13.32;;;9.27;;
45522;SDS011;31254;51.680;5.394;2024-01-30T00:41:08;13.95;;;9.27;;
45522;SDS011;31254;51.680;5.394;2024-01-30T00:43:35;12.38;;;9.18;;
45522;SDS011;31254;51.680;5.394;2024-01-30T00:46:02;12.07;;;9.00;;
45522;SDS011;31254;51.680;5.394;2024-01-30T00:48:29;14.85;;;9.57;;
45522;SDS011;31254;51.680;5.394;2024-01-30T00:50:56;13.23;;;9.73;;
45522;SDS011;31254;51.680;5.394;2024-01-30T00:53:23;12.50;;;9.40;;
45522;SDS011;31254;51.680;5.394;2024-01-30T00:55:49;12.05;;;9.07;;
45522;SDS011;31254;51.680;5.394;2024-01-30T00:58:16;13.77;;;9.70;;
45522;SDS011;31254;51.680;5.394;2024-01-30T01:00:42;13.38;;;9.55;;
45522;SDS011;31254;51.680;5.394;2024-01-30T01:03:09;13.38;;;9.75;;
45522;SDS011;31254;51.680;5.394;2024-01-30T01:05:35;12.80;;;9.43;;
45522;SDS011;31254;51.680;5.394;2024-01-30T01:08:02;14.10;;;9.70;;
45522;SDS011;31254;51.680;5.394;2024-01-30T01:10:29;13.18;;;9.50;;
45522;SDS011;31254;51.680;5.394;2024-01-30T01:12:56;12.63;;;9.30;;
45522;SDS011;31254;51.680;5.394;2024-01-30T01:15:24;12.88;;;9.48;;
45522;SDS011;31254;51.680;5.394;2024-01-30T01:17:54;13.07;;;9.35;;
45522;SDS011;31254;51.680;5.394;2024-01-30T01:20:20;14.75;;;9.77;;
45522;SDS011;31254;51.680;5.394;2024-01-30T01:22:47;12.55;;;9.25;;
45522;SDS011;31254;51.680;5.394;2024-01-30T01:25:14;12.82;;;9.27;;
45522;SDS011;31254;51.680;5.394;2024-01-30T01:27:41;13.00;;;9.60;;
45522;SDS011;31254;51.680;5.394;2024-01-30T01:30:09;11.65;;;8.98;;
45522;SDS011;31254;51.680;5.394;2024-01-30T01:32:36;11.98;;;8.77;;
45522;SDS011;31254;51.680;5.394;2024-01-30T01:35:04;12.32;;;8.93;;
45522;SDS011;31254;51.680;5.394;2024-01-30T01:37:34;13.60;;;9.75;;
45522;SDS011;31254;51.680;5.394;2024-01-30T01:40:00;12.55;;;9.18;;
45522;SDS011;31254;51.680;5.394;2024-01-30T01:42:27;12.30;;;8.85;;
45522;SDS011;31254;51.680;5.394;2024-01-30T01:44:53;15.20;;;9.68;;
45522;SDS011;31254;51.680;5.394;2024-01-30T01:47:20;13.70;;;9.32;;
45522;SDS011;31254;51.680;5.394;2024-01-30T01:49:47;12.38;;;8.93;;
45522;SDS011;31254;51.680;5.394;2024-01-30T01:52:14;13.48;;;8.95;;
45522;SDS011;31254;51.680;5.394;2024-01-30T01:54:41;11.88;;;8.63;;
45522;SDS011;31254;51.680;5.394;2024-01-30T01:57:08;14.15;;;9.05;;
45522;SDS011;31254;51.680;5.394;2024-01-30T01:59:34;13.02;;;9.05;;
45522;SDS011;31254;51.680;5.394;2024-01-30T02:02:01;11.50;;;8.85;;
45522;SDS011;31254;51.680;5.394;2024-01-30T02:04:29;12.70;;;8.90;;
45522;SDS011;31254;51.680;5.394;2024-01-30T02:06:57;12.95;;;9.05;;
45522;SDS011;31254;51.680;5.394;2024-01-30T02:09:23;15.27;;;9.73;;
45522;SDS011;31254;51.680;5.394;2024-01-30T02:11:50;12.30;;;9.15;;
45522;SDS011;31254;51.680;5.394;2024-01-30T02:14:17;12.57;;;8.73;;
45522;SDS011;31254;51.680;5.394;2024-01-30T02:16:43;14.82;;;8.77;;
45522;SDS011;31254;51.680;5.394;2024-01-30T02:19:10;12.70;;;8.48;;
45522;SDS011;31254;51.680;5.394;2024-01-30T02:21:36;12.65;;;8.65;;
45522;SDS011;31254;51.680;5.394;2024-01-30T02:24:04;12.10;;;8.82;;
45522;SDS011;31254;51.680;5.394;2024-01-30T02:26:31;12.85;;;8.55;;
45522;SDS011;31254;51.680;5.394;2024-01-30T02:28:58;12.85;;;8.60;;
45522;SDS011;31254;51.680;5.394;2024-01-30T02:31:25;11.45;;;8.38;;
45522;SDS011;31254;51.680;5.394;2024-01-30T02:33:52;13.07;;;8.55;;
45522;SDS011;31254;51.680;5.394;2024-01-30T02:36:18;11.70;;;9.05;;
45522;SDS011;31254;51.680;5.394;2024-01-30T02:38:45;12.10;;;8.23;;
45522;SDS011;31254;51.680;5.394;2024-01-30T02:41:12;11.20;;;8.25;;
45522;SDS011;31254;51.680;5.394;2024-01-30T02:43:39;11.10;;;7.53;;
45522;SDS011;31254;51.680;5.394;2024-01-30T02:46:06;11.98;;;8.93;;
45522;SDS011;31254;51.680;5.394;2024-01-30T02:48:33;11.35;;;7.97;;
45522;SDS011;31254;51.680;5.394;2024-01-30T02:50:59;12.35;;;8.02;;
45522;SDS011;31254;51.680;5.394;2024-01-30T02:53:26;13.20;;;8.65;;
45522;SDS011;31254;51.680;5.394;2024-01-30T02:55:52;12.18;;;8.38;;
45522;SDS011;31254;51.680;5.394;2024-01-30T02:58:19;12.05;;;8.55;;
45522;SDS011;31254;51.680;5.394;2024-01-30T03:00:46;11.07;;;8.27;;
45522;SDS011;31254;51.680;5.394;2024-01-30T03:03:13;12.77;;;8.13;;
45522;SDS011;31254;51.680;5.394;2024-01-30T03:05:39;11.75;;;8.70;;
45522;SDS011;31254;51.680;5.394;2024-01-30T03:08:06;13.23;;;8.82;;
45522;SDS011;31254;51.680;5.394;2024-01-30T03:10:33;11.75;;;7.88;;
45522;SDS011;31254;51.680;5.394;2024-01-30T03:12:59;17.58;;;9.30;;
45522;SDS011;31254;51.680;5.394;2024-01-30T03:15:26;12.90;;;8.35;;
45522;SDS011;31254;51.680;5.394;2024-01-30T03:17:53;13.02;;;8.65;;
45522;SDS011;31254;51.680;5.394;2024-01-30T03:20:20;13.85;;;8.35;;
45522;SDS011;31254;51.680;5.394;2024-01-30T03:22:46;12.48;;;8.57;;
45522;SDS011;31254;51.680;5.394;2024-01-30T03:25:14;12.60;;;8.20;;
45522;SDS011;31254;51.680;5.394;2024-01-30T03:27:41;14.65;;;8.70;;
45522;SDS011;31254;51.680;5.394;2024-01-30T03:30:08;10.88;;;7.68;;
45522;SDS011;31254;51.680;5.394;2024-01-30T03:32:35;13.43;;;8.13;;
45522;SDS011;31254;51.680;5.394;2024-01-30T03:35:01;11.77;;;8.63;;
45522;SDS011;31254;51.680;5.394;2024-01-30T03:37:28;11.20;;;8.00;;
45522;SDS011;31254;51.680;5.394;2024-01-30T03:39:55;12.60;;;7.75;;
45522;SDS011;31254;51.680;5.394;2024-01-30T03:42:21;12.23;;;8.75;;
45522;SDS011;31254;51.680;5.394;2024-01-30T03:44:48;11.05;;;7.97;;
45522;SDS011;31254;51.680;5.394;2024-01-30T03:47:18;13.88;;;8.30;;
45522;SDS011;31254;51.680;5.394;2024-01-30T03:49:44;12.00;;;8.88;;
45522;SDS011;31254;51.680;5.394;2024-01-30T03:52:11;11.73;;;8.20;;
45522;SDS011;31254;51.680;5.394;2024-01-30T03:54:38;12.13;;;9.13;;
45522;SDS011;31254;51.680;5.394;2024-01-30T03:57:05;11.45;;;8.38;;
45522;SDS011;31254;51.680;5.394;2024-01-30T03:59:32;10.63;;;8.15;;
45522;SDS011;31254;51.680;5.394;2024-01-30T04:01:59;11.73;;;8.55;;
45522;SDS011;31254;51.680;5.394;2024-01-30T04:04:26;11.00;;;8.00;;
45522;SDS011;31254;51.680;5.394;2024-01-30T04:06:53;11.18;;;7.93;;
45522;SDS011;31254;51.680;5.394;2024-01-30T04:09:20;10.60;;;7.85;;
45522;SDS011;31254;51.680;5.394;2024-01-30T04:11:46;11.18;;;7.68;;
45522;SDS011;31254;51.680;5.394;2024-01-30T04:14:13;12.30;;;8.50;;
45522;SDS011;31254;51.680;5.394;2024-01-30T04:16:40;11.57;;;8.43;;
45522;SDS011;31254;51.680;5.394;2024-01-30T04:19:06;10.55;;;8.27;;
45522;SDS011;31254;51.680;5.394;2024-01-30T04:21:33;13.25;;;7.82;;
45522;SDS011;31254;51.680;5.394;2024-01-30T04:23:59;10.15;;;7.85;;
45522;SDS011;31254;51.680;5.394;2024-01-30T04:26:26;12.50;;;7.32;;
45522;SDS011;31254;51.680;5.394;2024-01-30T04:28:52;12.00;;;8.50;;
45522;SDS011;31254;51.680;5.394;2024-01-30T04:31:19;10.30;;;7.20;;
45522;SDS011;31254;51.680;5.394;2024-01-30T04:33:45;11.57;;;7.72;;
45522;SDS011;31254;51.680;5.394;2024-01-30T04:36:12;11.77;;;7.78;;
45522;SDS011;31254;51.680;5.394;2024-01-30T04:38:39;9.32;;;7.15;;
45522;SDS011;31254;51.680;5.394;2024-01-30T04:41:05;11.00;;;7.93;;
45522;SDS011;31254;51.680;5.394;2024-01-30T04:43:32;11.32;;;7.60;;
45522;SDS011;31254;51.680;5.394;2024-01-30T04:45:58;13.48;;;8.02;;
45522;SDS011;31254;51.680;5.394;2024-01-30T04:48:25;10.05;;;7.38;;
45522;SDS011;31254;51.680;5.394;2024-01-30T04:50:52;10.32;;;7.53;;
45522;SDS011;31254;51.680;5.394;2024-01-30T04:53:18;10.20;;;7.68;;
45522;SDS011;31254;51.680;5.394;2024-01-30T04:55:45;11.05;;;7.40;;
45522;SDS011;31254;51.680;5.394;2024-01-30T04:58:11;11.18;;;7.45;;
45522;SDS011;31254;51.680;5.394;2024-01-30T05:00:38;10.65;;;7.03;;
45522;SDS011;31254;51.680;5.394;2024-01-30T05:03:05;13.65;;;8.15;;
45522;SDS011;31254;51.680;5.394;2024-01-30T05:05:31;10.73;;;7.40;;
45522;SDS011;31254;51.680;5.394;2024-01-30T05:07:58;11.82;;;7.78;;
45522;SDS011;31254;51.680;5.394;2024-01-30T05:10:24;10.95;;;7.85;;
45522;SDS011;31254;51.680;5.394;2024-01-30T05:12:51;12.55;;;7.90;;
45522;SDS011;31254;51.680;5.394;2024-01-30T05:15:18;11.00;;;7.25;;
45522;SDS011;31254;51.680;5.394;2024-01-30T05:17:45;11.27;;;7.93;;
45522;SDS011;31254;51.680;5.394;2024-01-30T05:20:12;11.48;;;7.55;;
45522;SDS011;31254;51.680;5.394;2024-01-30T05:22:39;12.40;;;7.90;;
45522;SDS011;31254;51.680;5.394;2024-01-30T05:25:12;10.68;;;7.25;;
45522;SDS011;31254;51.680;5.394;2024-01-30T05:27:39;12.00;;;7.80;;
45522;SDS011;31254;51.680;5.394;2024-01-30T05:30:06;13.85;;;8.25;;
45522;SDS011;31254;51.680;5.394;2024-01-30T05:32:33;14.77;;;7.82;;
45522;SDS011;31254;51.680;5.394;2024-01-30T05:35:00;13.02;;;7.93;;
45522;SDS011;31254;51.680;5.394;2024-01-30T05:37:27;10.68;;;7.60;;
45522;SDS011;31254;51.680;5.394;2024-01-30T05:39:53;10.65;;;7.63;;
45522;SDS011;31254;51.680;5.394;2024-01-30T05:42:20;10.63;;;7.57;;
45522;SDS011;31254;51.680;5.394;2024-01-30T05:44:46;11.02;;;7.10;;
45522;SDS011;31254;51.680;5.394;2024-01-30T05:47:13;10.02;;;7.47;;
45522;SDS011;31254;51.680;5.394;2024-01-30T05:49:39;10.02;;;7.13;;
45522;SDS011;31254;51.680;5.394;2024-01-30T05:52:06;9.80;;;7.20;;
45522;SDS011;31254;51.680;5.394;2024-01-30T05:54:33;10.88;;;7.00;;
45522;SDS011;31254;51.680;5.394;2024-01-30T05:57:00;10.35;;;7.53;;
45522;SDS011;31254;51.680;5.394;2024-01-30T05:59:26;11.30;;;7.40;;
45522;SDS011;31254;51.680;5.394;2024-01-30T06:01:53;12.98;;;7.35;;
45522;SDS011;31254;51.680;5.394;2024-01-30T06:04:20;9.20;;;6.85;;
45522;SDS011;31254;51.680;5.394;2024-01-30T06:06:47;10.07;;;7.53;;
45522;SDS011;31254;51.680;5.394;2024-01-30T06:09:13;8.80;;;7.15;;
45522;SDS011;31254;51.680;5.394;2024-01-30T06:11:40;12.48;;;7.85;;
45522;SDS011;31254;51.680;5.394;2024-01-30T06:14:07;11.77;;;7.25;;
45522;SDS011;31254;51.680;5.394;2024-01-30T06:16:33;10.10;;;7.13;;
45522;SDS011;31254;51.680;5.394;2024-01-30T06:19:00;10.18;;;7.43;;
45522;SDS011;31254;51.680;5.394;2024-01-30T06:21:26;9.73;;;7.03;;
45522;SDS011;31254;51.680;5.394;2024-01-30T06:23:53;13.10;;;7.53;;
45522;SDS011;31254;51.680;5.394;2024-01-30T06:26:20;11.20;;;7.30;;
45522;SDS011;31254;51.680;5.394;2024-01-30T06:28:46;11.18;;;6.68;;
45522;SDS011;31254;51.680;5.394;2024-01-30T06:31:13;13.45;;;7.25;;
45522;SDS011;31254;51.680;5.394;2024-01-30T06:33:39;12.98;;;7.70;;
45522;SDS011;31254;51.680;5.394;2024-01-30T06:36:08;9.63;;;6.85;;
45522;SDS011;31254;51.680;5.394;2024-01-30T06:38:35;10.80;;;6.97;;
45522;SDS011;31254;51.680;5.394;2024-01-30T06:41:01;10.43;;;7.40;;
45522;SDS011;31254;51.680;5.394;2024-01-30T06:43:28;10.43;;;7.10;;
45522;SDS011;31254;51.680;5.394;2024-01-30T06:45:54;9.13;;;6.30;;
45522;SDS011;31254;51.680;5.394;2024-01-30T06:48:21;9.50;;;6.68;;
45522;SDS011;31254;51.680;5.394;2024-01-30T06:50:48;9.73;;;6.93;;
45522;SDS011;31254;51.680;5.394;2024-01-30T06:53:15;10.60;;;7.20;;
45522;SDS011;31254;51.680;5.394;2024-01-30T06:55:42;9.93;;;6.95;;
45522;SDS011;31254;51.680;5.394;2024-01-30T06:58:08;10.35;;;6.75;;
45522;SDS011;31254;51.680;5.394;2024-01-30T07:00:35;11.18;;;6.80;;
45522;SDS011;31254;51.680;5.394;2024-01-30T07:03:02;10.50;;;7.30;;
45522;SDS011;31254;51.680;5.394;2024-01-30T07:05:29;11.93;;;7.20;;
45522;SDS011;31254;51.680;5.394;2024-01-30T07:07:56;10.32;;;7.03;;
45522;SDS011;31254;51.680;5.394;2024-01-30T07:10:23;11.30;;;7.30;;
45522;SDS011;31254;51.680;5.394;2024-01-30T07:12:49;11.10;;;6.20;;
45522;SDS011;31254;51.680;5.394;2024-01-30T07:15:16;11.25;;;7.15;;
45522;SDS011;31254;51.680;5.394;2024-01-30T07:17:46;8.52;;;6.55;;
45522;SDS011;31254;51.680;5.394;2024-01-30T07:20:12;8.82;;;6.50;;
45522;SDS011;31254;51.680;5.394;2024-01-30T07:22:43;11.82;;;7.30;;
45522;SDS011;31254;51.680;5.394;2024-01-30T07:25:10;9.90;;;7.30;;
45522;SDS011;31254;51.680;5.394;2024-01-30T07:27:37;10.32;;;6.63;;
45522;SDS011;31254;51.680;5.394;2024-01-30T07:30:04;9.45;;;6.90;;
45522;SDS011;31254;51.680;5.394;2024-01-30T07:32:31;11.10;;;7.00;;
45522;SDS011;31254;51.680;5.394;2024-01-30T07:34:58;11.13;;;7.38;;
45522;SDS011;31254;51.680;5.394;2024-01-30T07:37:34;9.95;;;6.78;;
45522;SDS011;31254;51.680;5.394;2024-01-30T07:40:01;10.95;;;7.40;;
45522;SDS011;31254;51.680;5.394;2024-01-30T07:42:29;9.25;;;6.85;;
45522;SDS011;31254;51.680;5.394;2024-01-30T07:44:56;9.68;;;7.18;;
45522;SDS011;31254;51.680;5.394;2024-01-30T07:47:22;10.05;;;7.35;;
45522;SDS011;31254;51.680;5.394;2024-01-30T07:49:49;10.00;;;6.90;;
45522;SDS011;31254;51.680;5.394;2024-01-30T07:52:16;10.48;;;7.00;;
45522;SDS011;31254;51.680;5.394;2024-01-30T07:54:49;12.52;;;7.68;;
45522;SDS011;31254;51.680;5.394;2024-01-30T07:57:17;9.90;;;7.38;;
45522;SDS011;31254;51.680;5.394;2024-01-30T07:59:44;13.25;;;6.97;;
45522;SDS011;31254;51.680;5.394;2024-01-30T08:02:14;9.93;;;6.82;;
45522;SDS011;31254;51.680;5.394;2024-01-30T08:04:41;11.63;;;6.63;;
45522;SDS011;31254;51.680;5.394;2024-01-30T08:07:08;10.43;;;7.28;;
45522;SDS011;31254;51.680;5.394;2024-01-30T08:09:35;9.50;;;6.78;;
45522;SDS011;31254;51.680;5.394;2024-01-30T08:12:01;11.55;;;6.95;;
45522;SDS011;31254;51.680;5.394;2024-01-30T08:14:28;12.05;;;7.18;;
45522;SDS011;31254;51.680;5.394;2024-01-30T08:16:54;11.23;;;7.10;;
45522;SDS011;31254;51.680;5.394;2024-01-30T08:19:21;10.45;;;6.95;;
45522;SDS011;31254;51.680;5.394;2024-01-30T08:21:48;10.23;;;6.68;;
45522;SDS011;31254;51.680;5.394;2024-01-30T08:24:15;13.70;;;7.53;;
45522;SDS011;31254;51.680;5.394;2024-01-30T08:26:41;10.23;;;6.43;;
45522;SDS011;31254;51.680;5.394;2024-01-30T08:29:08;9.95;;;6.63;;
45522;SDS011;31254;51.680;5.394;2024-01-30T08:31:36;14.23;;;7.05;;
45522;SDS011;31254;51.680;5.394;2024-01-30T08:34:02;9.88;;;6.95;;
45522;SDS011;31254;51.680;5.394;2024-01-30T08:36:29;9.40;;;6.60;;
45522;SDS011;31254;51.680;5.394;2024-01-30T08:38:56;10.55;;;6.70;;
45522;SDS011;31254;51.680;5.394;2024-01-30T08:41:29;11.10;;;7.07;;
45522;SDS011;31254;51.680;5.394;2024-01-30T08:43:55;11.27;;;6.72;;
45522;SDS011;31254;51.680;5.394;2024-01-30T08:46:23;9.38;;;6.72;;
45522;SDS011;31254;51.680;5.394;2024-01-30T08:48:50;10.10;;;6.65;;
45522;SDS011;31254;51.680;5.394;2024-01-30T08:51:16;10.52;;;6.45;;
45522;SDS011;31254;51.680;5.394;2024-01-30T08:53:43;10.65;;;7.07;;
45522;SDS011;31254;51.680;5.394;2024-01-30T08:56:09;11.63;;;7.18;;
45522;SDS011;31254;51.680;5.394;2024-01-30T08:58:36;11.73;;;6.80;;
45522;SDS011;31254;51.680;5.394;2024-01-30T09:01:03;13.00;;;7.82;;
45522;SDS011;31254;51.680;5.394;2024-01-30T09:03:31;12.10;;;6.68;;
45522;SDS011;31254;51.680;5.394;2024-01-30T09:05:58;12.65;;;6.88;;
45522;SDS011;31254;51.680;5.394;2024-01-30T09:08:25;9.95;;;7.07;;
45522;SDS011;31254;51.680;5.394;2024-01-30T09:10:51;12.05;;;7.32;;
45522;SDS011;31254;51.680;5.394;2024-01-30T09:13:18;9.70;;;6.55;;
45522;SDS011;31254;51.680;5.394;2024-01-30T09:15:45;11.55;;;6.80;;
45522;SDS011;31254;51.680;5.394;2024-01-30T09:18:12;12.05;;;6.60;;
45522;SDS011;31254;51.680;5.394;2024-01-30T09:20:39;13.80;;;7.20;;
45522;SDS011;31254;51.680;5.394;2024-01-30T09:23:06;11.43;;;6.57;;
45522;SDS011;31254;51.680;5.394;2024-01-30T09:25:32;14.05;;;7.03;;
45522;SDS011;31254;51.680;5.394;2024-01-30T09:28:00;10.93;;;6.97;;
45522;SDS011;31254;51.680;5.394;2024-01-30T09:30:27;11.85;;;7.30;;
45522;SDS011;31254;51.680;5.394;2024-01-30T09:32:53;10.10;;;6.95;;
45522;SDS011;31254;51.680;5.394;2024-01-30T09:35:20;11.73;;;6.95;;
45522;SDS011;31254;51.680;5.394;2024-01-30T09:37:47;11.73;;;6.82;;
45522;SDS011;31254;51.680;5.394;2024-01-30T09:40:14;15.85;;;7.07;;
45522;SDS011;31254;51.680;5.394;2024-01-30T09:42:48;14.00;;;7.25;;
45522;SDS011;31254;51.680;5.394;2024-01-30T09:45:17;11.52;;;6.88;;
45522;SDS011;31254;51.680;5.394;2024-01-30T09:47:45;13.98;;;6.95;;
45522;SDS011;31254;51.680;5.394;2024-01-30T09:50:13;9.50;;;6.90;;
45522;SDS011;31254;51.680;5.394;2024-01-30T09:52:41;10.43;;;7.30;;
45522;SDS011;31254;51.680;5.394;2024-01-30T09:55:10;12.75;;;7.40;;
45522;SDS011;31254;51.680;5.394;2024-01-30T09:57:37;11.95;;;7.65;;
45522;SDS011;31254;51.680;5.394;2024-01-30T10:00:04;10.52;;;7.22;;
45522;SDS011;31254;51.680;5.394;2024-01-30T10:02:33;10.50;;;7.00;;
45522;SDS011;31254;51.680;5.394;2024-01-30T10:05:00;11.07;;;7.05;;
45522;SDS011;31254;51.680;5.394;2024-01-30T10:07:27;12.95;;;6.95;;
45522;SDS011;31254;51.680;5.394;2024-01-30T10:09:54;13.82;;;7.05;;
45522;SDS011;31254;51.680;5.394;2024-01-30T10:12:25;10.95;;;6.93;;
45522;SDS011;31254;51.680;5.394;2024-01-30T10:14:52;12.57;;;7.30;;
45522;SDS011;31254;51.680;5.394;2024-01-30T10:17:20;11.15;;;7.50;;
45522;SDS011;31254;51.680;5.394;2024-01-30T10:19:58;10.45;;;6.97;;
45522;SDS011;31254;51.680;5.394;2024-01-30T10:22:25;13.25;;;7.20;;
45522;SDS011;31254;51.680;5.394;2024-01-30T10:24:52;10.02;;;7.10;;
45522;SDS011;31254;51.680;5.394;2024-01-30T10:27:23;13.57;;;7.50;;
45522;SDS011;31254;51.680;5.394;2024-01-30T10:29:53;9.57;;;7.45;;
45522;SDS011;31254;51.680;5.394;2024-01-30T10:32:20;10.20;;;7.07;;
45522;SDS011;31254;51.680;5.394;2024-01-30T10:34:47;10.52;;;7.07;;
45522;SDS011;31254;51.680;5.394;2024-01-30T10:37:15;14.60;;;8.00;;
45522;SDS011;31254;51.680;5.394;2024-01-30T10:39:43;15.65;;;7.75;;
45522;SDS011;31254;51.680;5.394;2024-01-30T10:42:11;11.85;;;7.28;;
45522;SDS011;31254;51.680;5.394;2024-01-30T10:47:35;13.68;;;7.47;;
45522;SDS011;31254;51.680;5.394;2024-01-30T10:50:03;11.98;;;7.75;;
45522;SDS011;31254;51.680;5.394;2024-01-30T10:52:30;12.00;;;7.72;;
45522;SDS011;31254;51.680;5.394;2024-01-30T10:54:58;12.80;;;7.78;;
45522;SDS011;31254;51.680;5.394;2024-01-30T10:57:26;13.82;;;8.40;;
45522;SDS011;31254;51.680;5.394;2024-01-30T10:59:55;14.35;;;7.68;;
45522;SDS011;31254;51.680;5.394;2024-01-30T11:02:24;11.45;;;7.15;;
45522;SDS011;31254;51.680;5.394;2024-01-30T11:04:58;12.55;;;8.00;;
45522;SDS011;31254;51.680;5.394;2024-01-30T11:07:27;14.02;;;8.23;;
45522;SDS011;31254;51.680;5.394;2024-01-30T11:12:25;12.85;;;7.38;;
45522;SDS011;31254;51.680;5.394;2024-01-30T11:17:54;13.75;;;7.38;;
45522;SDS011;31254;51.680;5.394;2024-01-30T11:20:27;11.43;;;7.53;;
45522;SDS011;31254;51.680;5.394;2024-01-30T11:22:57;10.35;;;7.72;;
45522;SDS011;31254;51.680;5.394;2024-01-30T11:25:25;14.82;;;8.00;;
45522;SDS011;31254;51.680;5.394;2024-01-30T11:27:53;12.65;;;8.25;;
45522;SDS011;31254;51.680;5.394;2024-01-30T11:35:34;10.23;;;7.03;;
45522;SDS011;31254;51.680;5.394;2024-01-30T11:38:02;10.07;;;6.93;;
45522;SDS011;31254;51.680;5.394;2024-01-30T11:40:30;11.13;;;7.60;;
45522;SDS011;31254;51.680;5.394;2024-01-30T11:42:59;12.18;;;7.38;;
45522;SDS011;31254;51.680;5.394;2024-01-30T11:45:27;9.68;;;6.93;;
45522;SDS011;31254;51.680;5.394;2024-01-30T11:47:54;13.00;;;7.82;;
45522;SDS011;31254;51.680;5.394;2024-01-30T11:50:21;10.23;;;6.80;;
45522;SDS011;31254;51.680;5.394;2024-01-30T11:52:48;10.05;;;6.93;;
45522;SDS011;31254;51.680;5.394;2024-01-30T11:55:15;12.07;;;7.03;;
45522;SDS011;31254;51.680;5.394;2024-01-30T11:57:42;12.45;;;7.72;;
45522;SDS011;31254;51.680;5.394;2024-01-30T12:00:14;13.07;;;7.18;;
45522;SDS011;31254;51.680;5.394;2024-01-30T12:02:42;11.18;;;6.68;;
45522;SDS011;31254;51.680;5.394;2024-01-30T12:05:09;9.75;;;6.80;;
45522;SDS011;31254;51.680;5.394;2024-01-30T12:07:36;10.27;;;6.68;;
45522;SDS011;31254;51.680;5.394;2024-01-30T12:10:04;10.43;;;6.70;;
45522;SDS011;31254;51.680;5.394;2024-01-30T12:12:31;11.80;;;7.43;;
45522;SDS011;31254;51.680;5.394;2024-01-30T12:14:58;15.40;;;7.00;;
45522;SDS011;31254;51.680;5.394;2024-01-30T12:17:29;11.23;;;6.72;;
45522;SDS011;31254;51.680;5.394;2024-01-30T12:20:10;11.55;;;6.70;;
45522;SDS011;31254;51.680;5.394;2024-01-30T12:22:42;14.15;;;7.10;;
45522;SDS011;31254;51.680;5.394;2024-01-30T12:25:10;10.90;;;6.88;;
45522;SDS011;31254;51.680;5.394;2024-01-30T12:27:41;8.35;;;6.30;;
45522;SDS011;31254;51.680;5.394;2024-01-30T12:30:10;11.43;;;6.10;;
45522;SDS011;31254;51.680;5.394;2024-01-30T12:32:41;10.88;;;6.07;;
45522;SDS011;31254;51.680;5.394;2024-01-30T12:35:10;9.02;;;6.50;;
45522;SDS011;31254;51.680;5.394;2024-01-30T12:37:37;9.88;;;6.00;;
45522;SDS011;31254;51.680;5.394;2024-01-30T12:40:04;10.18;;;6.28;;
45522;SDS011;31254;51.680;5.394;2024-01-30T12:42:32;9.27;;;6.07;;
45522;SDS011;31254;51.680;5.394;2024-01-30T12:44:59;12.63;;;5.35;;
45522;SDS011;31254;51.680;5.394;2024-01-30T12:47:26;8.05;;;5.47;;
45522;SDS011;31254;51.680;5.394;2024-01-30T12:49:53;7.93;;;5.53;;
45522;SDS011;31254;51.680;5.394;2024-01-30T12:52:20;7.38;;;4.80;;
45522;SDS011;31254;51.680;5.394;2024-01-30T12:54:48;6.63;;;4.90;;
45522;SDS011;31254;51.680;5.394;2024-01-30T12:57:29;8.05;;;5.35;;
45522;SDS011;31254;51.680;5.394;2024-01-30T12:59:56;7.75;;;4.72;;
45522;SDS011;31254;51.680;5.394;2024-01-30T13:02:22;10.57;;;4.88;;
45522;SDS011;31254;51.680;5.394;2024-01-30T13:04:49;7.70;;;5.07;;
45522;SDS011;31254;51.680;5.394;2024-01-30T13:07:16;7.03;;;4.55;;
45522;SDS011;31254;51.680;5.394;2024-01-30T13:09:43;7.18;;;4.35;;
45522;SDS011;31254;51.680;5.394;2024-01-30T13:12:10;6.13;;;4.05;;
45522;SDS011;31254;51.680;5.394;2024-01-30T13:14:37;7.32;;;4.07;;
45522;SDS011;31254;51.680;5.394;2024-01-30T13:17:03;8.27;;;4.03;;
45522;SDS011;31254;51.680;5.394;2024-01-30T13:19:31;4.78;;;3.28;;
45522;SDS011;31254;51.680;5.394;2024-01-30T13:21:58;5.95;;;3.15;;
45522;SDS011;31254;51.680;5.394;2024-01-30T13:24:24;6.00;;;3.45;;
45522;SDS011;31254;51.680;5.394;2024-01-30T13:26:51;5.63;;;3.20;;
45522;SDS011;31254;51.680;5.394;2024-01-30T13:29:18;4.55;;;2.90;;
45522;SDS011;31254;51.680;5.394;2024-01-30T13:31:45;3.88;;;2.78;;
45522;SDS011;31254;51.680;5.394;2024-01-30T13:34:13;5.25;;;2.58;;
45522;SDS011;31254;51.680;5.394;2024-01-30T13:36:40;4.47;;;2.65;;
45522;SDS011;31254;51.680;5.394;2024-01-30T13:39:07;5.45;;;2.47;;
45522;SDS011;31254;51.680;5.394;2024-01-30T13:41:36;6.43;;;2.38;;
45522;SDS011;31254;51.680;5.394;2024-01-30T13:44:04;3.50;;;2.15;;
45522;SDS011;31254;51.680;5.394;2024-01-30T13:46:30;3.22;;;2.25;;
45522;SDS011;31254;51.680;5.394;2024-01-30T13:48:57;5.07;;;2.00;;
45522;SDS011;31254;51.680;5.394;2024-01-30T13:51:24;5.35;;;2.20;;
45522;SDS011;31254;51.680;5.394;2024-01-30T13:53:51;3.47;;;2.00;;
45522;SDS011;31254;51.680;5.394;2024-01-30T13:56:18;5.50;;;2.35;;
45522;SDS011;31254;51.680;5.394;2024-01-30T13:58:45;3.42;;;2.30;;
45522;SDS011;31254;51.680;5.394;2024-01-30T14:01:12;4.47;;;2.13;;
45522;SDS011;31254;51.680;5.394;2024-01-30T14:03:39;5.07;;;2.47;;
45522;SDS011;31254;51.680;5.394;2024-01-30T14:06:06;4.80;;;2.60;;
45522;SDS011;31254;51.680;5.394;2024-01-30T14:08:33;4.80;;;2.53;;
45522;SDS011;31254;51.680;5.394;2024-01-30T14:11:00;7.53;;;2.63;;
45522;SDS011;31254;51.680;5.394;2024-01-30T14:13:26;6.07;;;2.65;;
45522;SDS011;31254;51.680;5.394;2024-01-30T14:15:53;6.57;;;2.92;;
45522;SDS011;31254;51.680;5.394;2024-01-30T14:18:20;5.93;;;2.55;;
45522;SDS011;31254;51.680;5.394;2024-01-30T14:20:46;4.50;;;2.60;;
45522;SDS011;31254;51.680;5.394;2024-01-30T14:23:13;6.53;;;2.90;;
45522;SDS011;31254;51.680;5.394;2024-01-30T14:25:40;6.47;;;4.35;;
45522;SDS011;31254;51.680;5.394;2024-01-30T14:28:07;8.23;;;3.35;;
45522;SDS011;31254;51.680;5.394;2024-01-30T14:30:34;4.72;;;3.00;;
45522;SDS011;31254;51.680;5.394;2024-01-30T14:33:02;6.22;;;2.97;;
45522;SDS011;31254;51.680;5.394;2024-01-30T14:35:28;6.63;;;3.20;;
45522;SDS011;31254;51.680;5.394;2024-01-30T14:37:55;6.38;;;3.25;;
45522;SDS011;31254;51.680;5.394;2024-01-30T14:40:22;9.88;;;3.90;;
45522;SDS011;31254;51.680;5.394;2024-01-30T14:42:48;9.32;;;3.67;;
45522;SDS011;31254;51.680;5.394;2024-01-30T14:45:15;4.82;;;2.83;;
45522;SDS011;31254;51.680;5.394;2024-01-30T14:47:42;7.60;;;3.03;;
45522;SDS011;31254;51.680;5.394;2024-01-30T14:50:09;7.57;;;3.60;;
45522;SDS011;31254;51.680;5.394;2024-01-30T14:52:36;6.07;;;3.67;;